sensor_id;sensor_type;location;lat;lon;timestamp;pressure;altitude;pressure_sealevel;temperature;humidity
76858;BME280;65830;0.000;0.000;2023-07-30T00:01:24;99377.88;;;24.08;44.64
76858;BME280;65830;0.000;0.000;2023-07-30T00:03:50;99377.75;;;24.03;43.02
76858;BME280;65830;0.000;0.000;2023-07-30T00:06:15;99377.16;;;24.01;43.47
76858;BME280;65830;0.000;0.000;2023-07-30T00:08:40;99368.19;;;24.00;42.65
76858;BME280;65830;0.000;0.000;2023-07-30T00:11:06;99368.56;;;24.04;43.85
76858;BME280;65830;0.000;0.000;2023-07-30T00:13:31;99367.25;;;24.06;43.75
76858;BME280;65830;0.000;0.000;2023-07-30T00:15:57;99372.22;;;24.09;43.58
76858;BME280;65830;0.000;0.000;2023-07-30T00:18:22;99365.63;;;24.05;43.22
76858;BME280;65830;0.000;0.000;2023-07-30T00:20:48;99364.91;;;23.98;43.39
76858;BME280;65830;0.000;0.000;2023-07-30T00:23:13;99371.84;;;23.94;44.51
76858;BME280;65830;0.000;0.000;2023-07-30T00:25:39;99369.13;;;23.94;42.11
76858;BME280;65830;0.000;0.000;2023-07-30T00:28:04;99364.31;;;23.96;43.36
76858;BME280;65830;0.000;0.000;2023-07-30T00:30:30;99363.63;;;24.01;42.50
76858;BME280;65830;0.000;0.000;2023-07-30T00:32:55;99365.47;;;24.00;42.60
76858;BME280;65830;0.000;0.000;2023-07-30T00:35:20;99367.16;;;24.01;43.20
76858;BME280;65830;0.000;0.000;2023-07-30T00:37:47;99369.97;;;23.94;42.65
76858;BME280;65830;0.000;0.000;2023-07-30T00:40:13;99365.00;;;23.91;42.86
76858;BME280;65830;0.000;0.000;2023-07-30T00:42:39;99363.59;;;23.89;43.16
76858;BME280;65830;0.000;0.000;2023-07-30T00:45:04;99355.94;;;23.86;43.07
76858;BME280;65830;0.000;0.000;2023-07-30T00:47:30;99357.00;;;23.85;43.47
76858;BME280;65830;0.000;0.000;2023-07-30T00:49:56;99362.44;;;23.85;43.77
76858;BME280;65830;0.000;0.000;2023-07-30T00:52:23;99372.19;;;23.86;43.75
76858;BME280;65830;0.000;0.000;2023-07-30T00:54:49;99362.06;;;23.81;43.58
76858;BME280;65830;0.000;0.000;2023-07-30T00:57:15;99361.69;;;23.77;44.16
76858;BME280;65830;0.000;0.000;2023-07-30T00:59:42;99366.88;;;23.79;44.51
76858;BME280;65830;0.000;0.000;2023-07-30T01:02:08;99372.19;;;23.86;44.22
76858;BME280;65830;0.000;0.000;2023-07-30T01:04:33;99372.31;;;23.91;44.20
76858;BME280;65830;0.000;0.000;2023-07-30T01:06:59;99371.72;;;23.89;44.11
76858;BME280;65830;0.000;0.000;2023-07-30T01:09:26;99368.13;;;23.76;43.44
76858;BME280;65830;0.000;0.000;2023-07-30T01:11:52;99375.06;;;23.72;43.89
76858;BME280;65830;0.000;0.000;2023-07-30T01:14:19;99370.81;;;23.65;44.69
76858;BME280;65830;0.000;0.000;2023-07-30T01:16:45;99369.97;;;23.64;46.57
76858;BME280;65830;0.000;0.000;2023-07-30T01:19:10;99377.50;;;23.62;45.38
76858;BME280;65830;0.000;0.000;2023-07-30T01:21:36;99372.09;;;23.62;44.72
76858;BME280;65830;0.000;0.000;2023-07-30T01:24:02;99372.56;;;23.59;44.50
76858;BME280;65830;0.000;0.000;2023-07-30T01:26:30;99376.22;;;23.53;45.04
76858;BME280;65830;0.000;0.000;2023-07-30T01:28:58;99364.31;;;23.54;44.95
76858;BME280;65830;0.000;0.000;2023-07-30T01:31:26;99368.91;;;23.53;43.94
76858;BME280;65830;0.000;0.000;2023-07-30T01:33:52;99368.53;;;23.50;44.77
76858;BME280;65830;0.000;0.000;2023-07-30T01:36:19;99369.56;;;23.49;44.03
76858;BME280;65830;0.000;0.000;2023-07-30T01:38:45;99385.69;;;23.44;45.75
76858;BME280;65830;0.000;0.000;2023-07-30T01:41:12;99379.09;;;23.39;45.45
76858;BME280;65830;0.000;0.000;2023-07-30T01:43:38;99380.50;;;23.42;45.30
76858;BME280;65830;0.000;0.000;2023-07-30T01:46:03;99379.91;;;23.40;45.59
76858;BME280;65830;0.000;0.000;2023-07-30T01:48:29;99381.06;;;23.32;45.46
76858;BME280;65830;0.000;0.000;2023-07-30T01:50:54;99385.88;;;23.30;46.43
76858;BME280;65830;0.000;0.000;2023-07-30T01:53:19;99388.47;;;23.25;46.60
76858;BME280;65830;0.000;0.000;2023-07-30T01:55:45;99381.38;;;23.24;46.85
76858;BME280;65830;0.000;0.000;2023-07-30T01:58:12;99386.78;;;23.24;46.01
76858;BME280;65830;0.000;0.000;2023-07-30T02:00:38;99385.97;;;23.24;46.40
76858;BME280;65830;0.000;0.000;2023-07-30T02:03:04;99392.31;;;23.17;45.77
76858;BME280;65830;0.000;0.000;2023-07-30T02:05:30;99388.69;;;23.05;47.92
76858;BME280;65830;0.000;0.000;2023-07-30T02:07:55;99394.25;;;22.92;49.14
76858;BME280;65830;0.000;0.000;2023-07-30T02:10:20;99387.09;;;22.79;48.07
76858;BME280;65830;0.000;0.000;2023-07-30T02:12:46;99396.94;;;22.73;49.40
76858;BME280;65830;0.000;0.000;2023-07-30T02:15:11;99383.19;;;22.75;48.50
76858;BME280;65830;0.000;0.000;2023-07-30T02:17:37;99389.06;;;22.72;47.93
76858;BME280;65830;0.000;0.000;2023-07-30T02:20:02;99391.78;;;22.72;47.85
76858;BME280;65830;0.000;0.000;2023-07-30T02:22:28;99392.22;;;22.69;47.95
76858;BME280;65830;0.000;0.000;2023-07-30T02:24:53;99390.22;;;22.57;48.77
76858;BME280;65830;0.000;0.000;2023-07-30T02:27:22;99392.81;;;22.52;48.91
76858;BME280;65830;0.000;0.000;2023-07-30T02:29:48;99399.41;;;22.56;48.83
76858;BME280;65830;0.000;0.000;2023-07-30T02:32:13;99399.81;;;22.60;49.35
76858;BME280;65830;0.000;0.000;2023-07-30T02:34:39;99400.19;;;22.64;47.61
76858;BME280;65830;0.000;0.000;2023-07-30T02:37:04;99399.25;;;22.51;48.10
76858;BME280;65830;0.000;0.000;2023-07-30T02:39:30;99403.06;;;22.44;47.71
76858;BME280;65830;0.000;0.000;2023-07-30T02:41:55;99409.31;;;22.44;48.02
76858;BME280;65830;0.000;0.000;2023-07-30T02:44:21;99407.31;;;22.33;48.41
76858;BME280;65830;0.000;0.000;2023-07-30T02:46:46;99413.34;;;22.35;49.07
76858;BME280;65830;0.000;0.000;2023-07-30T02:49:12;99418.47;;;22.43;49.70
76858;BME280;65830;0.000;0.000;2023-07-30T02:51:37;99415.44;;;22.33;48.43
76858;BME280;65830;0.000;0.000;2023-07-30T02:54:06;99414.41;;;22.34;48.84
76858;BME280;65830;0.000;0.000;2023-07-30T02:56:32;99417.72;;;22.36;48.97
76858;BME280;65830;0.000;0.000;2023-07-30T02:58:58;99420.44;;;22.29;48.36
76858;BME280;65830;0.000;0.000;2023-07-30T03:01:24;99408.38;;;22.32;49.54
76858;BME280;65830;0.000;0.000;2023-07-30T03:03:49;99422.34;;;22.29;48.96
76858;BME280;65830;0.000;0.000;2023-07-30T03:06:15;99424.00;;;22.23;49.36
76858;BME280;65830;0.000;0.000;2023-07-30T03:08:42;99426.31;;;22.19;49.84
76858;BME280;65830;0.000;0.000;2023-07-30T03:11:08;99432.41;;;22.15;48.86
76858;BME280;65830;0.000;0.000;2023-07-30T03:13:34;99430.50;;;22.15;48.85
76858;BME280;65830;0.000;0.000;2023-07-30T03:16:00;99435.78;;;22.10;49.01
76858;BME280;65830;0.000;0.000;2023-07-30T03:18:25;99438.69;;;22.09;49.33
76858;BME280;65830;0.000;0.000;2023-07-30T03:20:51;99441.78;;;22.12;49.24
76858;BME280;65830;0.000;0.000;2023-07-30T03:23:16;99440.72;;;22.13;49.15
76858;BME280;65830;0.000;0.000;2023-07-30T03:25:42;99441.53;;;22.14;49.83
76858;BME280;65830;0.000;0.000;2023-07-30T03:28:07;99436.59;;;22.11;48.54
76858;BME280;65830;0.000;0.000;2023-07-30T03:30:33;99442.81;;;22.11;49.59
76858;BME280;65830;0.000;0.000;2023-07-30T03:32:59;99440.28;;;22.16;49.33
76858;BME280;65830;0.000;0.000;2023-07-30T03:35:24;99445.25;;;22.19;48.46
76858;BME280;65830;0.000;0.000;2023-07-30T03:37:50;99443.13;;;22.21;49.62
76858;BME280;65830;0.000;0.000;2023-07-30T03:40:16;99444.63;;;22.17;49.13
76858;BME280;65830;0.000;0.000;2023-07-30T03:42:41;99437.81;;;22.15;49.53
76858;BME280;65830;0.000;0.000;2023-07-30T03:45:07;99444.00;;;22.22;50.04
76858;BME280;65830;0.000;0.000;2023-07-30T03:47:32;99442.94;;;22.23;49.67
76858;BME280;65830;0.000;0.000;2023-07-30T03:49:58;99439.84;;;22.26;50.38
76858;BME280;65830;0.000;0.000;2023-07-30T03:52:24;99438.19;;;22.18;49.58
76858;BME280;65830;0.000;0.000;2023-07-30T03:54:50;99444.03;;;22.15;49.94
76858;BME280;65830;0.000;0.000;2023-07-30T03:57:16;99449.44;;;22.15;49.97
76858;BME280;65830;0.000;0.000;2023-07-30T03:59:41;99447.78;;;22.14;49.16
76858;BME280;65830;0.000;0.000;2023-07-30T04:02:07;99446.13;;;22.13;49.86
76858;BME280;65830;0.000;0.000;2023-07-30T04:04:32;99454.28;;;22.07;50.92
76858;BME280;65830;0.000;0.000;2023-07-30T04:06:58;99456.38;;;22.05;50.43
76858;BME280;65830;0.000;0.000;2023-07-30T04:09:24;99458.69;;;22.01;49.89
76858;BME280;65830;0.000;0.000;2023-07-30T04:11:49;99450.31;;;21.77;50.49
76858;BME280;65830;0.000;0.000;2023-07-30T04:14:15;99451.78;;;21.73;50.70
76858;BME280;65830;0.000;0.000;2023-07-30T04:16:40;99454.03;;;21.83;50.52
76858;BME280;65830;0.000;0.000;2023-07-30T04:19:08;99452.34;;;21.89;49.96
76858;BME280;65830;0.000;0.000;2023-07-30T04:21:33;99453.38;;;21.88;49.84
76858;BME280;65830;0.000;0.000;2023-07-30T04:24:00;99463.56;;;21.86;51.02
76858;BME280;65830;0.000;0.000;2023-07-30T04:26:25;99472.84;;;21.96;51.11
76858;BME280;65830;0.000;0.000;2023-07-30T04:28:51;99466.59;;;21.96;50.66
76858;BME280;65830;0.000;0.000;2023-07-30T04:31:16;99469.75;;;21.93;50.46
76858;BME280;65830;0.000;0.000;2023-07-30T04:33:42;99466.03;;;21.87;50.29
76858;BME280;65830;0.000;0.000;2023-07-30T04:36:07;99469.22;;;21.77;50.29
76858;BME280;65830;0.000;0.000;2023-07-30T04:38:33;99473.41;;;21.73;50.45
76858;BME280;65830;0.000;0.000;2023-07-30T04:40:59;99470.91;;;21.72;51.02
76858;BME280;65830;0.000;0.000;2023-07-30T04:43:25;99469.28;;;21.64;50.94
76858;BME280;65830;0.000;0.000;2023-07-30T04:45:55;99478.03;;;21.59;51.04
76858;BME280;65830;0.000;0.000;2023-07-30T04:48:21;99478.00;;;21.66;50.64
76858;BME280;65830;0.000;0.000;2023-07-30T04:50:47;99475.22;;;21.79;51.45
76858;BME280;65830;0.000;0.000;2023-07-30T04:53:12;99480.97;;;21.90;51.10
76858;BME280;65830;0.000;0.000;2023-07-30T04:55:38;99473.28;;;21.93;51.08
76858;BME280;65830;0.000;0.000;2023-07-30T04:58:04;99478.63;;;22.00;51.11
76858;BME280;65830;0.000;0.000;2023-07-30T05:00:30;99482.38;;;21.99;51.13
76858;BME280;65830;0.000;0.000;2023-07-30T05:02:56;99472.47;;;21.93;50.85
76858;BME280;65830;0.000;0.000;2023-07-30T05:05:21;99476.84;;;21.87;50.99
76858;BME280;65830;0.000;0.000;2023-07-30T05:07:47;99466.84;;;21.94;51.57
76858;BME280;65830;0.000;0.000;2023-07-30T05:10:12;99475.94;;;22.00;50.82
76858;BME280;65830;0.000;0.000;2023-07-30T05:12:37;99478.38;;;22.08;51.92
76858;BME280;65830;0.000;0.000;2023-07-30T05:17:28;99474.34;;;22.24;50.26
76858;BME280;65830;0.000;0.000;2023-07-30T05:19:54;99474.28;;;22.31;49.86
76858;BME280;65830;0.000;0.000;2023-07-30T05:22:19;99469.31;;;22.28;49.48
76858;BME280;65830;0.000;0.000;2023-07-30T05:24:45;99486.31;;;22.35;48.98
76858;BME280;65830;0.000;0.000;2023-07-30T05:27:10;99484.22;;;22.37;49.17
76858;BME280;65830;0.000;0.000;2023-07-30T05:29:36;99484.16;;;22.44;48.87
76858;BME280;65830;0.000;0.000;2023-07-30T05:32:01;99490.34;;;22.51;49.89
76858;BME280;65830;0.000;0.000;2023-07-30T05:34:27;99467.50;;;22.47;48.67
76858;BME280;65830;0.000;0.000;2023-07-30T05:36:52;99482.63;;;22.54;47.58
76858;BME280;65830;0.000;0.000;2023-07-30T05:39:18;99488.19;;;22.59;47.54
76858;BME280;65830;0.000;0.000;2023-07-30T05:41:43;99487.31;;;22.66;47.19
76858;BME280;65830;0.000;0.000;2023-07-30T05:44:09;99490.16;;;22.71;47.49
76858;BME280;65830;0.000;0.000;2023-07-30T05:46:34;99487.41;;;22.77;47.39
76858;BME280;65830;0.000;0.000;2023-07-30T05:48:59;99483.22;;;22.82;47.51
76858;BME280;65830;0.000;0.000;2023-07-30T05:51:25;99487.47;;;22.89;46.95
76858;BME280;65830;0.000;0.000;2023-07-30T05:53:50;99483.66;;;22.97;46.58
76858;BME280;65830;0.000;0.000;2023-07-30T05:56:16;99491.75;;;23.04;46.53
76858;BME280;65830;0.000;0.000;2023-07-30T05:58:43;99490.25;;;23.08;45.87
76858;BME280;65830;0.000;0.000;2023-07-30T06:01:09;99481.44;;;23.12;45.38
76858;BME280;65830;0.000;0.000;2023-07-30T06:03:34;99490.16;;;23.14;45.94
76858;BME280;65830;0.000;0.000;2023-07-30T06:06:01;99486.44;;;23.15;45.82
76858;BME280;65830;0.000;0.000;2023-07-30T06:08:26;99477.41;;;23.22;45.83
76858;BME280;65830;0.000;0.000;2023-07-30T06:10:52;99483.94;;;23.32;46.09
76858;BME280;65830;0.000;0.000;2023-07-30T06:13:17;99486.91;;;23.43;46.33
76858;BME280;65830;0.000;0.000;2023-07-30T06:15:43;99476.84;;;23.50;45.83
76858;BME280;65830;0.000;0.000;2023-07-30T06:18:08;99473.00;;;23.57;45.73
76858;BME280;65830;0.000;0.000;2023-07-30T06:20:34;99474.56;;;23.65;45.95
76858;BME280;65830;0.000;0.000;2023-07-30T06:22:59;99473.28;;;23.68;46.17
76858;BME280;65830;0.000;0.000;2023-07-30T06:25:24;99476.47;;;23.76;45.25
76858;BME280;65830;0.000;0.000;2023-07-30T06:27:50;99478.31;;;23.83;44.99
76858;BME280;65830;0.000;0.000;2023-07-30T06:30:16;99470.78;;;23.85;45.09
76858;BME280;65830;0.000;0.000;2023-07-30T06:32:42;99475.28;;;23.91;45.73
76858;BME280;65830;0.000;0.000;2023-07-30T06:35:07;99472.34;;;24.04;44.36
76858;BME280;65830;0.000;0.000;2023-07-30T06:37:33;99463.91;;;24.12;45.49
76858;BME280;65830;0.000;0.000;2023-07-30T06:39:59;99465.22;;;24.22;44.90
76858;BME280;65830;0.000;0.000;2023-07-30T06:42:24;99467.34;;;24.31;44.30
76858;BME280;65830;0.000;0.000;2023-07-30T06:44:50;99468.31;;;24.37;44.40
76858;BME280;65830;0.000;0.000;2023-07-30T06:47:15;99447.31;;;24.21;44.41
76858;BME280;65830;0.000;0.000;2023-07-30T06:49:41;99455.81;;;24.36;45.04
76858;BME280;65830;0.000;0.000;2023-07-30T06:52:06;99453.34;;;24.46;44.22
76858;BME280;65830;0.000;0.000;2023-07-30T06:54:32;99460.69;;;24.57;44.50
76858;BME280;65830;0.000;0.000;2023-07-30T06:56:57;99455.16;;;24.64;43.06
76858;BME280;65830;0.000;0.000;2023-07-30T06:59:23;99444.91;;;24.66;42.62
76858;BME280;65830;0.000;0.000;2023-07-30T07:01:48;99448.66;;;24.77;43.48
76858;BME280;65830;0.000;0.000;2023-07-30T07:04:14;99436.03;;;24.83;42.97
76858;BME280;65830;0.000;0.000;2023-07-30T07:06:40;99436.75;;;24.90;42.61
76858;BME280;65830;0.000;0.000;2023-07-30T07:09:05;99430.13;;;24.97;43.34
76858;BME280;65830;0.000;0.000;2023-07-30T07:11:31;99432.47;;;25.06;42.92
76858;BME280;65830;0.000;0.000;2023-07-30T07:13:56;99436.56;;;25.08;43.05
76858;BME280;65830;0.000;0.000;2023-07-30T07:16:22;99431.97;;;25.09;43.27
76858;BME280;65830;0.000;0.000;2023-07-30T07:18:47;99431.25;;;25.13;42.38
76858;BME280;65830;0.000;0.000;2023-07-30T07:21:14;99434.22;;;25.24;42.30
76858;BME280;65830;0.000;0.000;2023-07-30T07:23:39;99429.81;;;25.34;42.64
76858;BME280;65830;0.000;0.000;2023-07-30T07:26:05;99429.34;;;25.38;42.03
76858;BME280;65830;0.000;0.000;2023-07-30T07:28:31;99432.44;;;25.58;41.24
76858;BME280;65830;0.000;0.000;2023-07-30T07:30:56;99432.97;;;25.72;40.76
76858;BME280;65830;0.000;0.000;2023-07-30T07:33:22;99422.44;;;25.75;40.99
76858;BME280;65830;0.000;0.000;2023-07-30T07:35:47;99424.63;;;25.79;42.24
76858;BME280;65830;0.000;0.000;2023-07-30T07:38:13;99432.56;;;25.80;41.88
76858;BME280;65830;0.000;0.000;2023-07-30T07:40:39;99422.03;;;25.84;41.62
76858;BME280;65830;0.000;0.000;2023-07-30T07:43:05;99419.69;;;26.04;41.50
76858;BME280;65830;0.000;0.000;2023-07-30T07:45:31;99424.81;;;26.01;40.14
76858;BME280;65830;0.000;0.000;2023-07-30T07:47:56;99421.75;;;25.97;40.44
76858;BME280;65830;0.000;0.000;2023-07-30T07:50:22;99423.16;;;26.00;41.68
76858;BME280;65830;0.000;0.000;2023-07-30T07:52:47;99417.06;;;26.09;39.90
76858;BME280;65830;0.000;0.000;2023-07-30T07:55:13;99420.34;;;26.11;40.89
76858;BME280;65830;0.000;0.000;2023-07-30T07:57:38;99416.88;;;26.16;40.19
76858;BME280;65830;0.000;0.000;2023-07-30T08:00:04;99414.94;;;26.28;39.89
76858;BME280;65830;0.000;0.000;2023-07-30T08:02:37;99413.66;;;26.36;39.86
76858;BME280;65830;0.000;0.000;2023-07-30T08:05:02;99410.13;;;26.35;38.89
76858;BME280;65830;0.000;0.000;2023-07-30T08:07:28;99404.44;;;26.37;39.33
76858;BME280;65830;0.000;0.000;2023-07-30T08:09:54;99403.78;;;26.47;39.18
76858;BME280;65830;0.000;0.000;2023-07-30T08:12:20;99405.50;;;26.53;39.56
76858;BME280;65830;0.000;0.000;2023-07-30T08:14:45;99404.72;;;26.58;40.03
76858;BME280;65830;0.000;0.000;2023-07-30T08:17:10;99400.03;;;26.70;38.21
76858;BME280;65830;0.000;0.000;2023-07-30T08:19:36;99393.03;;;26.74;38.61
76858;BME280;65830;0.000;0.000;2023-07-30T08:22:01;99402.84;;;26.75;37.98
76858;BME280;65830;0.000;0.000;2023-07-30T08:24:27;99398.53;;;26.79;39.02
76858;BME280;65830;0.000;0.000;2023-07-30T08:26:55;99397.84;;;26.89;38.97
76858;BME280;65830;0.000;0.000;2023-07-30T08:29:20;99392.72;;;26.92;39.09
76858;BME280;65830;0.000;0.000;2023-07-30T08:31:46;99381.88;;;26.98;38.76
76858;BME280;65830;0.000;0.000;2023-07-30T08:34:11;99376.50;;;27.03;38.33
76858;BME280;65830;0.000;0.000;2023-07-30T08:36:37;99378.97;;;27.04;39.68
76858;BME280;65830;0.000;0.000;2023-07-30T08:39:02;99375.59;;;27.19;37.75
76858;BME280;65830;0.000;0.000;2023-07-30T08:41:29;99366.72;;;27.24;36.76
76858;BME280;65830;0.000;0.000;2023-07-30T08:43:54;99354.47;;;27.26;36.70
76858;BME280;65830;0.000;0.000;2023-07-30T08:46:20;99361.38;;;27.34;39.08
76858;BME280;65830;0.000;0.000;2023-07-30T08:48:46;99352.63;;;27.32;38.55
76858;BME280;65830;0.000;0.000;2023-07-30T08:51:11;99355.09;;;27.33;40.09
76858;BME280;65830;0.000;0.000;2023-07-30T08:53:38;99343.66;;;27.31;41.89
76858;BME280;65830;0.000;0.000;2023-07-30T08:56:04;99341.22;;;27.35;41.84
76858;BME280;65830;0.000;0.000;2023-07-30T08:58:31;99344.09;;;27.50;37.75
76858;BME280;65830;0.000;0.000;2023-07-30T09:00:58;99342.19;;;27.51;36.04
76858;BME280;65830;0.000;0.000;2023-07-30T09:03:24;99335.34;;;27.48;35.60
76858;BME280;65830;0.000;0.000;2023-07-30T09:05:52;99334.22;;;27.44;36.22
76858;BME280;65830;0.000;0.000;2023-07-30T09:08:17;99322.06;;;27.57;37.09
76858;BME280;65830;0.000;0.000;2023-07-30T09:10:43;99319.94;;;27.59;38.06
76858;BME280;65830;0.000;0.000;2023-07-30T09:13:08;99312.31;;;27.61;39.51
76858;BME280;65830;0.000;0.000;2023-07-30T09:15:35;99314.50;;;27.64;38.77
76858;BME280;65830;0.000;0.000;2023-07-30T09:18:02;99314.25;;;27.66;39.11
76858;BME280;65830;0.000;0.000;2023-07-30T09:20:36;99312.00;;;27.90;38.78
76858;BME280;65830;0.000;0.000;2023-07-30T09:23:02;99311.53;;;27.98;34.41
76858;BME280;65830;0.000;0.000;2023-07-30T09:25:27;99306.94;;;28.04;36.15
76858;BME280;65830;0.000;0.000;2023-07-30T09:27:52;99302.34;;;28.15;38.26
76858;BME280;65830;0.000;0.000;2023-07-30T09:30:24;99297.94;;;28.08;35.82
76858;BME280;65830;0.000;0.000;2023-07-30T09:32:51;99290.06;;;28.12;34.93
76858;BME280;65830;0.000;0.000;2023-07-30T09:35:16;99287.44;;;28.27;35.00
76858;BME280;65830;0.000;0.000;2023-07-30T09:37:42;99285.66;;;28.48;35.85
76858;BME280;65830;0.000;0.000;2023-07-30T09:40:12;99275.94;;;28.73;35.57
76858;BME280;65830;0.000;0.000;2023-07-30T09:42:38;99274.00;;;28.63;34.19
76858;BME280;65830;0.000;0.000;2023-07-30T09:45:05;99276.72;;;28.63;33.94
76858;BME280;65830;0.000;0.000;2023-07-30T09:47:32;99268.53;;;28.63;34.89
76858;BME280;65830;0.000;0.000;2023-07-30T09:49:59;99264.72;;;28.64;34.22
76858;BME280;65830;0.000;0.000;2023-07-30T09:52:24;99259.19;;;28.54;36.70
76858;BME280;65830;0.000;0.000;2023-07-30T09:54:50;99248.59;;;28.63;34.48
76858;BME280;65830;0.000;0.000;2023-07-30T09:57:17;99255.16;;;28.72;36.31
76858;BME280;65830;0.000;0.000;2023-07-30T09:59:42;99248.34;;;28.64;35.62
76858;BME280;65830;0.000;0.000;2023-07-30T10:02:08;99244.81;;;28.79;35.44
76858;BME280;65830;0.000;0.000;2023-07-30T10:04:36;99248.38;;;28.80;37.70
76858;BME280;65830;0.000;0.000;2023-07-30T10:07:05;99238.91;;;29.13;34.88
76858;BME280;65830;0.000;0.000;2023-07-30T10:09:35;99240.56;;;29.45;33.34
76858;BME280;65830;0.000;0.000;2023-07-30T10:12:08;99233.72;;;29.63;33.13
76858;BME280;65830;0.000;0.000;2023-07-30T10:14:35;99227.72;;;29.45;35.78
76858;BME280;65830;0.000;0.000;2023-07-30T10:17:00;99223.63;;;29.38;33.93
76858;BME280;65830;0.000;0.000;2023-07-30T10:19:27;99214.59;;;29.73;32.84
76858;BME280;65830;0.000;0.000;2023-07-30T10:22:19;99218.16;;;29.74;33.69
76858;BME280;65830;0.000;0.000;2023-07-30T10:25:00;99219.19;;;29.98;33.09
76858;BME280;65830;0.000;0.000;2023-07-30T10:27:36;99220.56;;;29.96;33.44
76858;BME280;65830;0.000;0.000;2023-07-30T10:30:12;99217.63;;;29.72;33.46
76858;BME280;65830;0.000;0.000;2023-07-30T10:32:42;99207.78;;;29.50;33.63
76858;BME280;65830;0.000;0.000;2023-07-30T10:35:07;99205.00;;;29.86;32.60
76858;BME280;65830;0.000;0.000;2023-07-30T10:37:33;99197.88;;;29.90;32.07
76858;BME280;65830;0.000;0.000;2023-07-30T10:39:59;99194.53;;;30.08;31.05
76858;BME280;65830;0.000;0.000;2023-07-30T10:42:32;99191.34;;;29.81;33.31
76858;BME280;65830;0.000;0.000;2023-07-30T10:44:58;99196.47;;;30.08;31.53
76858;BME280;65830;0.000;0.000;2023-07-30T10:47:24;99196.38;;;30.28;30.42
76858;BME280;65830;0.000;0.000;2023-07-30T10:49:51;99182.91;;;30.53;30.92
76858;BME280;65830;0.000;0.000;2023-07-30T10:52:19;99195.59;;;30.23;31.19
76858;BME280;65830;0.000;0.000;2023-07-30T10:54:49;99191.13;;;30.42;31.59
76858;BME280;65830;0.000;0.000;2023-07-30T10:57:14;99180.63;;;30.65;30.84
76858;BME280;65830;0.000;0.000;2023-07-30T10:59:40;99177.84;;;30.70;29.98
76858;BME280;65830;0.000;0.000;2023-07-30T11:02:06;99180.63;;;30.65;30.03
76858;BME280;65830;0.000;0.000;2023-07-30T11:04:34;99173.94;;;30.81;28.39
76858;BME280;65830;0.000;0.000;2023-07-30T11:06:59;99183.75;;;30.87;27.28
76858;BME280;65830;0.000;0.000;2023-07-30T11:09:26;99177.41;;;30.97;27.03
76858;BME280;65830;0.000;0.000;2023-07-30T11:11:53;99166.66;;;31.06;27.05
76858;BME280;65830;0.000;0.000;2023-07-30T11:14:19;99166.78;;;30.91;28.64
76858;BME280;65830;0.000;0.000;2023-07-30T11:19:14;99153.56;;;30.98;26.66
76858;BME280;65830;0.000;0.000;2023-07-30T11:21:49;99156.81;;;31.05;28.18
76858;BME280;65830;0.000;0.000;2023-07-30T11:24:15;99155.63;;;31.16;28.82
76858;BME280;65830;0.000;0.000;2023-07-30T11:26:42;99154.47;;;32.05;25.50
76858;BME280;65830;0.000;0.000;2023-07-30T11:29:15;99155.00;;;32.07;26.21
76858;BME280;65830;0.000;0.000;2023-07-30T11:31:40;99146.94;;;32.16;24.91
76858;BME280;65830;0.000;0.000;2023-07-30T11:34:06;99139.13;;;32.04;27.00
76858;BME280;65830;0.000;0.000;2023-07-30T11:36:31;99137.38;;;32.32;25.99
76858;BME280;65830;0.000;0.000;2023-07-30T11:38:57;99135.25;;;32.29;26.29
76858;BME280;65830;0.000;0.000;2023-07-30T11:41:23;99126.25;;;32.23;26.30
76858;BME280;65830;0.000;0.000;2023-07-30T11:43:49;99129.16;;;32.32;25.29
76858;BME280;65830;0.000;0.000;2023-07-30T11:46:17;99127.38;;;32.60;24.77
76858;BME280;65830;0.000;0.000;2023-07-30T11:48:44;99116.53;;;32.88;24.97
76858;BME280;65830;0.000;0.000;2023-07-30T11:53:51;99116.28;;;33.36;23.65
76858;BME280;65830;0.000;0.000;2023-07-30T11:56:21;99113.44;;;33.55;24.46
76858;BME280;65830;0.000;0.000;2023-07-30T11:58:47;99103.91;;;33.80;23.50
76858;BME280;65830;0.000;0.000;2023-07-30T12:01:14;99106.84;;;33.98;23.92
76858;BME280;65830;0.000;0.000;2023-07-30T12:03:39;99103.75;;;34.13;23.32
76858;BME280;65830;0.000;0.000;2023-07-30T12:06:06;99091.13;;;34.49;25.49
76858;BME280;65830;0.000;0.000;2023-07-30T12:08:33;99086.50;;;34.58;23.67
76858;BME280;65830;0.000;0.000;2023-07-30T12:11:02;99086.00;;;34.70;21.76
76858;BME280;65830;0.000;0.000;2023-07-30T12:13:28;99085.28;;;34.87;22.56
76858;BME280;65830;0.000;0.000;2023-07-30T12:15:54;99075.22;;;35.13;22.43
76858;BME280;65830;0.000;0.000;2023-07-30T12:18:20;99066.91;;;35.36;19.54
76858;BME280;65830;0.000;0.000;2023-07-30T12:20:49;99052.69;;;35.51;20.29
76858;BME280;65830;0.000;0.000;2023-07-30T12:23:16;99056.66;;;35.68;20.62
76858;BME280;65830;0.000;0.000;2023-07-30T12:25:41;99055.91;;;35.85;19.24
76858;BME280;65830;0.000;0.000;2023-07-30T12:28:07;99052.03;;;36.03;26.48
76858;BME280;65830;0.000;0.000;2023-07-30T12:30:32;99044.91;;;36.54;19.64
76858;BME280;65830;0.000;0.000;2023-07-30T12:32:58;99046.38;;;36.78;20.71
76858;BME280;65830;0.000;0.000;2023-07-30T12:35:23;99050.06;;;36.91;19.23
76858;BME280;65830;0.000;0.000;2023-07-30T12:37:49;99057.50;;;37.25;18.29
76858;BME280;65830;0.000;0.000;2023-07-30T12:40:14;99051.34;;;37.49;19.58
76858;BME280;65830;0.000;0.000;2023-07-30T12:42:40;99049.06;;;37.51;20.86
76858;BME280;65830;0.000;0.000;2023-07-30T12:45:06;99038.94;;;37.55;20.85
76858;BME280;65830;0.000;0.000;2023-07-30T12:47:31;99041.97;;;37.71;19.64
76858;BME280;65830;0.000;0.000;2023-07-30T12:49:57;99047.56;;;37.92;17.95
76858;BME280;65830;0.000;0.000;2023-07-30T12:52:22;99038.03;;;38.02;21.14
76858;BME280;65830;0.000;0.000;2023-07-30T12:54:48;99026.50;;;38.21;17.02
76858;BME280;65830;0.000;0.000;2023-07-30T12:57:14;99026.59;;;38.04;17.22
76858;BME280;65830;0.000;0.000;2023-07-30T12:59:40;99024.34;;;38.06;17.37
76858;BME280;65830;0.000;0.000;2023-07-30T13:02:05;99023.25;;;38.19;16.98
76858;BME280;65830;0.000;0.000;2023-07-30T13:04:31;99010.00;;;38.25;17.27
76858;BME280;65830;0.000;0.000;2023-07-30T13:06:57;99012.28;;;38.02;18.06
76858;BME280;65830;0.000;0.000;2023-07-30T13:09:22;99016.09;;;38.18;21.19
76858;BME280;65830;0.000;0.000;2023-07-30T13:11:48;99002.00;;;38.44;19.73